sensor_id;sensor_type;location;lat;lon;timestamp;P1;durP1;ratioP1;P2;durP2;ratioP2
56824;SDS011;42705;50.326;18.772;2023-02-08T00:00:33;85.10;;;31.50;;
56824;SDS011;42705;50.326;18.772;2023-02-08T00:06:14;102.30;;;39.50;;
56824;SDS011;42705;50.326;18.772;2023-02-08T00:11:36;90.80;;;36.20;;
56824;SDS011;42705;50.326;18.772;2023-02-08T00:16:57;103.50;;;38.60;;
56824;SDS011;42705;50.326;18.772;2023-02-08T00:22:19;91.60;;;32.60;;
56824;SDS011;42705;50.326;18.772;2023-02-08T00:27:40;98.20;;;38.40;;
56824;SDS011;42705;50.326;18.772;2023-02-08T00:33:02;99.90;;;39.40;;
56824;SDS011;42705;50.326;18.772;2023-02-08T00:38:24;90.60;;;35.40;;
56824;SDS011;42705;50.326;18.772;2023-02-08T00:43:46;111.00;;;41.50;;
56824;SDS011;42705;50.326;18.772;2023-02-08T00:49:07;126.10;;;46.80;;
56824;SDS011;42705;50.326;18.772;2023-02-08T00:54:28;93.30;;;38.00;;
56824;SDS011;42705;50.326;18.772;2023-02-08T00:59:50;103.00;;;41.30;;
56824;SDS011;42705;50.326;18.772;2023-02-08T01:05:11;113.80;;;44.60;;
56824;SDS011;42705;50.326;18.772;2023-02-08T01:10:33;101.70;;;41.10;;
56824;SDS011;42705;50.326;18.772;2023-02-08T01:15:57;96.10;;;39.40;;
56824;SDS011;42705;50.326;18.772;2023-02-08T01:21:41;103.40;;;41.90;;
56824;SDS011;42705;50.326;18.772;2023-02-08T01:27:03;89.70;;;38.80;;
56824;SDS011;42705;50.326;18.772;2023-02-08T01:32:25;98.70;;;39.10;;
56824;SDS011;42705;50.326;18.772;2023-02-08T01:37:48;105.50;;;42.50;;
56824;SDS011;42705;50.326;18.772;2023-02-08T01:43:15;87.30;;;37.10;;
56824;SDS011;42705;50.326;18.772;2023-02-08T01:48:41;83.00;;;35.80;;
56824;SDS011;42705;50.326;18.772;2023-02-08T01:54:02;93.60;;;38.40;;
56824;SDS011;42705;50.326;18.772;2023-02-08T01:59:28;83.80;;;35.90;;
56824;SDS011;42705;50.326;18.772;2023-02-08T02:04:56;75.70;;;31.60;;
56824;SDS011;42705;50.326;18.772;2023-02-08T02:15:52;87.60;;;37.40;;
56824;SDS011;42705;50.326;18.772;2023-02-08T02:27:08;72.90;;;32.50;;
56824;SDS011;42705;50.326;18.772;2023-02-08T02:55:53;70.00;;;31.80;;
56824;SDS011;42705;50.326;18.772;2023-02-08T03:01:22;64.40;;;27.30;;
56824;SDS011;42705;50.326;18.772;2023-02-08T03:18:30;80.50;;;31.90;;
56824;SDS011;42705;50.326;18.772;2023-02-08T03:24:10;69.10;;;32.30;;
56824;SDS011;42705;50.326;18.772;2023-02-08T03:29:53;72.20;;;32.30;;
56824;SDS011;42705;50.326;18.772;2023-02-08T03:40:41;57.70;;;26.40;;
56824;SDS011;42705;50.326;18.772;2023-02-08T03:51:38;57.00;;;25.30;;
56824;SDS011;42705;50.326;18.772;2023-02-08T03:57:05;60.40;;;26.00;;
56824;SDS011;42705;50.326;18.772;2023-02-08T04:02:33;60.00;;;26.00;;
56824;SDS011;42705;50.326;18.772;2023-02-08T04:08:01;58.30;;;25.10;;
56824;SDS011;42705;50.326;18.772;2023-02-08T04:13:22;59.20;;;25.30;;
56824;SDS011;42705;50.326;18.772;2023-02-08T04:18:43;61.50;;;26.50;;
56824;SDS011;42705;50.326;18.772;2023-02-08T04:24:04;54.20;;;22.50;;
56824;SDS011;42705;50.326;18.772;2023-02-08T04:29:26;71.90;;;29.40;;
56824;SDS011;42705;50.326;18.772;2023-02-08T04:34:47;63.80;;;28.60;;
56824;SDS011;42705;50.326;18.772;2023-02-08T04:40:08;66.20;;;29.40;;
56824;SDS011;42705;50.326;18.772;2023-02-08T04:45:30;62.10;;;27.50;;
56824;SDS011;42705;50.326;18.772;2023-02-08T04:50:55;62.70;;;27.30;;
56824;SDS011;42705;50.326;18.772;2023-02-08T04:56:18;60.10;;;28.30;;
56824;SDS011;42705;50.326;18.772;2023-02-08T05:01:39;63.00;;;27.50;;
56824;SDS011;42705;50.326;18.772;2023-02-08T05:07:00;49.50;;;21.70;;
56824;SDS011;42705;50.326;18.772;2023-02-08T05:12:22;73.70;;;29.50;;
56824;SDS011;42705;50.326;18.772;2023-02-08T05:17:43;56.30;;;25.50;;
56824;SDS011;42705;50.326;18.772;2023-02-08T05:23:04;53.90;;;24.80;;
56824;SDS011;42705;50.326;18.772;2023-02-08T05:28:25;62.20;;;25.10;;
56824;SDS011;42705;50.326;18.772;2023-02-08T05:33:47;52.70;;;24.80;;
56824;SDS011;42705;50.326;18.772;2023-02-08T05:39:08;54.60;;;25.70;;
56824;SDS011;42705;50.326;18.772;2023-02-08T05:44:30;54.70;;;22.80;;
56824;SDS011;42705;50.326;18.772;2023-02-08T05:49:51;55.80;;;25.20;;
56824;SDS011;42705;50.326;18.772;2023-02-08T05:55:12;49.90;;;21.50;;
56824;SDS011;42705;50.326;18.772;2023-02-08T06:00:33;63.00;;;27.70;;
56824;SDS011;42705;50.326;18.772;2023-02-08T06:05:54;54.40;;;22.10;;
56824;SDS011;42705;50.326;18.772;2023-02-08T06:11:20;43.70;;;22.30;;
56824;SDS011;42705;50.326;18.772;2023-02-08T06:16:41;52.10;;;23.50;;
56824;SDS011;42705;50.326;18.772;2023-02-08T06:22:03;57.10;;;26.10;;
56824;SDS011;42705;50.326;18.772;2023-02-08T06:27:24;47.00;;;21.00;;
56824;SDS011;42705;50.326;18.772;2023-02-08T06:32:45;61.70;;;26.70;;
56824;SDS011;42705;50.326;18.772;2023-02-08T06:38:07;52.00;;;25.20;;
56824;SDS011;42705;50.326;18.772;2023-02-08T06:43:28;55.90;;;25.80;;
56824;SDS011;42705;50.326;18.772;2023-02-08T06:48:49;63.00;;;26.70;;
56824;SDS011;42705;50.326;18.772;2023-02-08T06:54:10;64.90;;;27.10;;
56824;SDS011;42705;50.326;18.772;2023-02-08T06:59:31;55.60;;;24.00;;
56824;SDS011;42705;50.326;18.772;2023-02-08T07:04:52;49.60;;;20.70;;
56824;SDS011;42705;50.326;18.772;2023-02-08T07:10:14;68.50;;;27.70;;
56824;SDS011;42705;50.326;18.772;2023-02-08T07:15:35;61.20;;;26.30;;
56824;SDS011;42705;50.326;18.772;2023-02-08T07:20:56;62.20;;;27.40;;
56824;SDS011;42705;50.326;18.772;2023-02-08T07:26:18;63.90;;;27.30;;
56824;SDS011;42705;50.326;18.772;2023-02-08T07:31:39;61.80;;;25.20;;
56824;SDS011;42705;50.326;18.772;2023-02-08T07:37:00;71.80;;;31.80;;
56824;SDS011;42705;50.326;18.772;2023-02-08T07:42:21;74.80;;;29.60;;
56824;SDS011;42705;50.326;18.772;2023-02-08T07:47:48;69.60;;;29.60;;
56824;SDS011;42705;50.326;18.772;2023-02-08T07:53:09;68.30;;;28.80;;
56824;SDS011;42705;50.326;18.772;2023-02-08T07:58:30;60.60;;;25.10;;
56824;SDS011;42705;50.326;18.772;2023-02-08T08:03:51;60.30;;;25.20;;
56824;SDS011;42705;50.326;18.772;2023-02-08T08:09:13;81.50;;;32.80;;
56824;SDS011;42705;50.326;18.772;2023-02-08T08:14:35;69.70;;;30.20;;
56824;SDS011;42705;50.326;18.772;2023-02-08T08:19:56;52.80;;;23.40;;
56824;SDS011;42705;50.326;18.772;2023-02-08T08:25:17;45.90;;;19.80;;
56824;SDS011;42705;50.326;18.772;2023-02-08T08:30:41;39.40;;;19.40;;
56824;SDS011;42705;50.326;18.772;2023-02-08T08:36:04;45.60;;;19.20;;
56824;SDS011;42705;50.326;18.772;2023-02-08T08:41:25;48.80;;;20.70;;
56824;SDS011;42705;50.326;18.772;2023-02-08T08:46:48;40.00;;;18.60;;
56824;SDS011;42705;50.326;18.772;2023-02-08T08:52:09;39.00;;;18.70;;
56824;SDS011;42705;50.326;18.772;2023-02-08T08:57:31;36.90;;;17.20;;
56824;SDS011;42705;50.326;18.772;2023-02-08T09:02:52;39.90;;;17.70;;
56824;SDS011;42705;50.326;18.772;2023-02-08T09:08:14;41.90;;;18.20;;
56824;SDS011;42705;50.326;18.772;2023-02-08T09:13:35;37.20;;;17.60;;
56824;SDS011;42705;50.326;18.772;2023-02-08T09:19:00;38.50;;;16.80;;
56824;SDS011;42705;50.326;18.772;2023-02-08T09:24:22;34.30;;;15.00;;
56824;SDS011;42705;50.326;18.772;2023-02-08T09:29:44;28.20;;;13.20;;
56824;SDS011;42705;50.326;18.772;2023-02-08T09:35:06;27.90;;;12.50;;
56824;SDS011;42705;50.326;18.772;2023-02-08T09:40:30;25.90;;;10.90;;
56824;SDS011;42705;50.326;18.772;2023-02-08T09:46:04;27.80;;;11.10;;
56824;SDS011;42705;50.326;18.772;2023-02-08T09:51:32;26.50;;;11.80;;
56824;SDS011;42705;50.326;18.772;2023-02-08T09:57:01;26.40;;;12.70;;
56824;SDS011;42705;50.326;18.772;2023-02-08T10:02:27;28.90;;;12.80;;
56824;SDS011;42705;50.326;18.772;2023-02-08T10:07:51;27.40;;;12.50;;
56824;SDS011;42705;50.326;18.772;2023-02-08T10:36:52;13.50;;;6.70;;
56824;SDS011;42705;50.326;18.772;2023-02-08T10:42:18;14.10;;;6.50;;
56824;SDS011;42705;50.326;18.772;2023-02-08T10:47:45;18.30;;;7.30;;
56824;SDS011;42705;50.326;18.772;2023-02-08T10:53:12;17.50;;;8.30;;
56824;SDS011;42705;50.326;18.772;2023-02-08T10:58:36;18.30;;;7.60;;
56824;SDS011;42705;50.326;18.772;2023-02-08T11:04:01;13.80;;;6.50;;
56824;SDS011;42705;50.326;18.772;2023-02-08T11:09:25;12.40;;;5.70;;
56824;SDS011;42705;50.326;18.772;2023-02-08T11:14:50;13.70;;;6.70;;
56824;SDS011;42705;50.326;18.772;2023-02-08T11:20:19;22.30;;;9.10;;
56824;SDS011;42705;50.326;18.772;2023-02-08T11:25:52;16.90;;;8.40;;
56824;SDS011;42705;50.326;18.772;2023-02-08T11:31:15;24.30;;;9.70;;
56824;SDS011;42705;50.326;18.772;2023-02-08T11:36:45;21.00;;;9.50;;
56824;SDS011;42705;50.326;18.772;2023-02-08T11:42:12;20.00;;;9.50;;
56824;SDS011;42705;50.326;18.772;2023-02-08T11:47:40;21.00;;;9.80;;
56824;SDS011;42705;50.326;18.772;2023-02-08T11:53:16;18.70;;;9.10;;
56824;SDS011;42705;50.326;18.772;2023-02-08T11:58:54;22.50;;;10.10;;
56824;SDS011;42705;50.326;18.772;2023-02-08T12:04:24;21.60;;;9.40;;
56824;SDS011;42705;50.326;18.772;2023-02-08T12:44:38;15.80;;;10.70;;
56824;SDS011;42705;50.326;18.772;2023-02-08T12:56:08;17.40;;;13.50;;
56824;SDS011;42705;50.326;18.772;2023-02-08T13:01:43;18.40;;;13.50;;
56824;SDS011;42705;50.326;18.772;2023-02-08T13:07:22;15.70;;;12.50;;
56824;SDS011;42705;50.326;18.772;2023-02-08T13:12:47;15.80;;;12.80;;
56824;SDS011;42705;50.326;18.772;2023-02-08T13:18:17;15.40;;;13.10;;
56824;SDS011;42705;50.326;18.772;2023-02-08T13:23:43;14.00;;;12.00;;
56824;SDS011;42705;50.326;18.772;2023-02-08T13:29:13;14.20;;;12.70;;
56824;SDS011;42705;50.326;18.772;2023-02-08T13:34:44;15.10;;;12.30;;
56824;SDS011;42705;50.326;18.772;2023-02-08T13:45:38;13.20;;;11.80;;
56824;SDS011;42705;50.326;18.772;2023-02-08T13:51:02;13.20;;;11.80;;
56824;SDS011;42705;50.326;18.772;2023-02-08T14:07:51;15.60;;;13.10;;
56824;SDS011;42705;50.326;18.772;2023-02-08T14:13:26;16.30;;;12.90;;
56824;SDS011;42705;50.326;18.772;2023-02-08T14:18:52;13.90;;;11.90;;
56824;SDS011;42705;50.326;18.772;2023-02-08T14:24:23;17.20;;;11.80;;
56824;SDS011;42705;50.326;18.772;2023-02-08T14:35:19;18.30;;;13.40;;
56824;SDS011;42705;50.326;18.772;2023-02-08T14:40:56;21.20;;;13.20;;
56824;SDS011;42705;50.326;18.772;2023-02-08T14:52:03;27.50;;;15.80;;
56824;SDS011;42705;50.326;18.772;2023-02-08T14:57:34;25.20;;;15.80;;
56824;SDS011;42705;50.326;18.772;2023-02-08T15:02:56;27.60;;;17.90;;
56824;SDS011;42705;50.326;18.772;2023-02-08T15:08:19;27.30;;;15.80;;
56824;SDS011;42705;50.326;18.772;2023-02-08T15:13:41;24.30;;;16.10;;
56824;SDS011;42705;50.326;18.772;2023-02-08T15:19:02;31.50;;;17.90;;
56824;SDS011;42705;50.326;18.772;2023-02-08T15:24:25;32.40;;;17.80;;
56824;SDS011;42705;50.326;18.772;2023-02-08T15:29:49;34.20;;;18.50;;
56824;SDS011;42705;50.326;18.772;2023-02-08T15:35:12;37.60;;;18.80;;
56824;SDS011;42705;50.326;18.772;2023-02-08T15:40:38;37.60;;;17.90;;
56824;SDS011;42705;50.326;18.772;2023-02-08T15:46:00;50.20;;;21.10;;
56824;SDS011;42705;50.326;18.772;2023-02-08T15:51:24;62.80;;;23.80;;
56824;SDS011;42705;50.326;18.772;2023-02-08T15:56:48;55.20;;;22.50;;
56824;SDS011;42705;50.326;18.772;2023-02-08T16:02:33;47.90;;;21.00;;
56824;SDS011;42705;50.326;18.772;2023-02-08T16:07:55;46.60;;;20.50;;
56824;SDS011;42705;50.326;18.772;2023-02-08T16:13:30;62.40;;;25.70;;
56824;SDS011;42705;50.326;18.772;2023-02-08T16:19:01;52.40;;;23.70;;
56824;SDS011;42705;50.326;18.772;2023-02-08T16:24:25;39.10;;;17.80;;
56824;SDS011;42705;50.326;18.772;2023-02-08T16:29:47;58.20;;;27.40;;
56824;SDS011;42705;50.326;18.772;2023-02-08T16:35:20;59.40;;;26.70;;
56824;SDS011;42705;50.326;18.772;2023-02-08T16:51:36;55.90;;;23.80;;
56824;SDS011;42705;50.326;18.772;2023-02-08T16:57:02;50.00;;;22.40;;
56824;SDS011;42705;50.326;18.772;2023-02-08T17:02:24;62.90;;;26.70;;
56824;SDS011;42705;50.326;18.772;2023-02-08T17:07:45;60.50;;;27.10;;
56824;SDS011;42705;50.326;18.772;2023-02-08T17:13:08;62.80;;;25.90;;
56824;SDS011;42705;50.326;18.772;2023-02-08T17:18:30;60.50;;;28.40;;
56824;SDS011;42705;50.326;18.772;2023-02-08T17:23:52;68.40;;;29.30;;
56824;SDS011;42705;50.326;18.772;2023-02-08T17:29:13;65.70;;;26.90;;
56824;SDS011;42705;50.326;18.772;2023-02-08T17:34:35;71.60;;;28.60;;
56824;SDS011;42705;50.326;18.772;2023-02-08T17:39:56;74.20;;;30.50;;
56824;SDS011;42705;50.326;18.772;2023-02-08T17:45:17;62.30;;;25.40;;
56824;SDS011;42705;50.326;18.772;2023-02-08T17:50:40;54.50;;;23.80;;
56824;SDS011;42705;50.326;18.772;2023-02-08T17:56:03;53.50;;;22.40;;
56824;SDS011;42705;50.326;18.772;2023-02-08T18:01:26;57.60;;;25.50;;
56824;SDS011;42705;50.326;18.772;2023-02-08T18:06:47;73.80;;;29.70;;
56824;SDS011;42705;50.326;18.772;2023-02-08T18:12:09;88.80;;;36.60;;
56824;SDS011;42705;50.326;18.772;2023-02-08T18:17:30;97.80;;;39.40;;
56824;SDS011;42705;50.326;18.772;2023-02-08T18:22:52;137.80;;;51.10;;
56824;SDS011;42705;50.326;18.772;2023-02-08T18:28:13;119.70;;;46.80;;
56824;SDS011;42705;50.326;18.772;2023-02-08T18:33:37;127.70;;;51.60;;
56824;SDS011;42705;50.326;18.772;2023-02-08T18:38:59;137.70;;;55.60;;
56824;SDS011;42705;50.326;18.772;2023-02-08T18:44:22;148.10;;;53.90;;
56824;SDS011;42705;50.326;18.772;2023-02-08T18:49:44;190.80;;;68.40;;
56824;SDS011;42705;50.326;18.772;2023-02-08T18:55:08;206.00;;;73.20;;
56824;SDS011;42705;50.326;18.772;2023-02-08T19:00:30;150.90;;;53.40;;
56824;SDS011;42705;50.326;18.772;2023-02-08T19:05:51;137.50;;;51.90;;
56824;SDS011;42705;50.326;18.772;2023-02-08T19:11:24;169.80;;;63.30;;
56824;SDS011;42705;50.326;18.772;2023-02-08T19:17:04;172.60;;;63.40;;
56824;SDS011;42705;50.326;18.772;2023-02-08T19:22:26;131.80;;;53.00;;
56824;SDS011;42705;50.326;18.772;2023-02-08T19:27:48;122.50;;;45.60;;
56824;SDS011;42705;50.326;18.772;2023-02-08T19:33:13;81.90;;;35.60;;
56824;SDS011;42705;50.326;18.772;2023-02-08T19:38:35;81.20;;;33.30;;
56824;SDS011;42705;50.326;18.772;2023-02-08T19:44:07;83.10;;;34.30;;
56824;SDS011;42705;50.326;18.772;2023-02-08T19:49:31;97.20;;;37.10;;
56824;SDS011;42705;50.326;18.772;2023-02-08T19:54:52;92.90;;;40.10;;
56824;SDS011;42705;50.326;18.772;2023-02-08T20:00:14;87.60;;;36.30;;
56824;SDS011;42705;50.326;18.772;2023-02-08T20:05:43;98.80;;;39.90;;
56824;SDS011;42705;50.326;18.772;2023-02-08T20:11:05;107.90;;;40.30;;
56824;SDS011;42705;50.326;18.772;2023-02-08T20:16:27;102.90;;;37.60;;
56824;SDS011;42705;50.326;18.772;2023-02-08T20:21:50;125.10;;;45.50;;
56824;SDS011;42705;50.326;18.772;2023-02-08T20:27:12;113.70;;;42.80;;
56824;SDS011;42705;50.326;18.772;2023-02-08T20:32:35;118.20;;;46.20;;
56824;SDS011;42705;50.326;18.772;2023-02-08T20:37:56;100.20;;;38.60;;
56824;SDS011;42705;50.326;18.772;2023-02-08T20:43:17;137.40;;;52.40;;
56824;SDS011;42705;50.326;18.772;2023-02-08T20:48:38;108.80;;;45.70;;
56824;SDS011;42705;50.326;18.772;2023-02-08T20:54:00;106.50;;;42.50;;
56824;SDS011;42705;50.326;18.772;2023-02-08T20:59:23;92.90;;;37.40;;
56824;SDS011;42705;50.326;18.772;2023-02-08T21:04:44;96.90;;;37.60;;
56824;SDS011;42705;50.326;18.772;2023-02-08T21:10:06;93.60;;;36.00;;
56824;SDS011;42705;50.326;18.772;2023-02-08T21:15:27;87.40;;;34.30;;
56824;SDS011;42705;50.326;18.772;2023-02-08T21:20:48;68.00;;;27.20;;
56824;SDS011;42705;50.326;18.772;2023-02-08T21:26:11;87.40;;;34.70;;
56824;SDS011;42705;50.326;18.772;2023-02-08T21:31:34;75.50;;;29.00;;
56824;SDS011;42705;50.326;18.772;2023-02-08T21:36:56;71.50;;;29.60;;
56824;SDS011;42705;50.326;18.772;2023-02-08T21:42:17;70.70;;;31.80;;
56824;SDS011;42705;50.326;18.772;2023-02-08T21:47:39;90.10;;;36.40;;
56824;SDS011;42705;50.326;18.772;2023-02-08T21:53:01;94.10;;;39.70;;
56824;SDS011;42705;50.326;18.772;2023-02-08T21:58:41;104.70;;;38.60;;
56824;SDS011;42705;50.326;18.772;2023-02-08T22:04:02;96.20;;;36.70;;
56824;SDS011;42705;50.326;18.772;2023-02-08T22:09:23;100.60;;;35.90;;
56824;SDS011;42705;50.326;18.772;2023-02-08T22:14:45;96.80;;;35.80;;
56824;SDS011;42705;50.326;18.772;2023-02-08T22:20:08;93.40;;;37.80;;
56824;SDS011;42705;50.326;18.772;2023-02-08T22:25:30;98.00;;;38.40;;
56824;SDS011;42705;50.326;18.772;2023-02-08T22:30:51;99.20;;;38.80;;
56824;SDS011;42705;50.326;18.772;2023-02-08T22:36:13;98.60;;;38.60;;
56824;SDS011;42705;50.326;18.772;2023-02-08T22:41:34;90.20;;;38.20;;
56824;SDS011;42705;50.326;18.772;2023-02-08T22:46:55;158.70;;;55.80;;
56824;SDS011;42705;50.326;18.772;2023-02-08T22:52:17;172.90;;;62.60;;
56824;SDS011;42705;50.326;18.772;2023-02-08T22:57:42;199.50;;;69.40;;
56824;SDS011;42705;50.326;18.772;2023-02-08T23:03:08;180.50;;;63.70;;
56824;SDS011;42705;50.326;18.772;2023-02-08T23:08:29;172.00;;;60.00;;
56824;SDS011;42705;50.326;18.772;2023-02-08T23:13:50;141.00;;;54.10;;
56824;SDS011;42705;50.326;18.772;2023-02-08T23:19:13;151.30;;;54.20;;
56824;SDS011;42705;50.326;18.772;2023-02-08T23:24:35;147.30;;;56.50;;
56824;SDS011;42705;50.326;18.772;2023-02-08T23:29:56;156.80;;;59.80;;
56824;SDS011;42705;50.326;18.772;2023-02-08T23:35:17;141.30;;;57.00;;
56824;SDS011;42705;50.326;18.772;2023-02-08T23:40:39;151.70;;;53.90;;
56824;SDS011;42705;50.326;18.772;2023-02-08T23:46:05;145.50;;;55.30;;
56824;SDS011;42705;50.326;18.772;2023-02-08T23:51:27;154.30;;;54.10;;
56824;SDS011;42705;50.326;18.772;2023-02-08T23:56:48;143.70;;;55.60;;
